Time;durP1;ratioP1;P1;durP2;ratioP2;P2;SDS_P1;SDS_P2;PMS_P1;PMS_P2;Temp;Humidity;BMP_temperature;BMP_pressure;BME280_temperature;BME280_humidity;BME280_pressure;Samples;Min_cycle;Max_cycle;Signal;HPM_P1;HPM_P2
2023/10/18 06:52:14;;;;;;;5.10;2.22;;;;;;;5.81;69.67;98706.13;6080175;22;3498979;-88
2023/10/18 06:57:36;;;;;;;4.28;1.98;;;;;;;6.08;69.21;98729.81;6230662;23;19920;-85
2023/10/18 07:00:07;;;;;;;5.80;2.10;;;;;;;6.00;68.98;98714.25;6151426;23;20535;-88
2023/10/18 07:02:44;;;;;;;7.93;2.10;;;;;;;6.31;68.98;98746.28;6178379;23;20016;-87
2023/10/18 07:05:19;;;;;;;8.67;2.10;;;;;;;6.21;68.32;98727.44;6177176;23;20020;-87
2023/10/18 07:07:45;;;;;;;3.13;1.90;;;;;;;6.30;68.60;98731.91;6152508;23;20725;-87
2023/10/18 07:10:53;;;;;;;4.60;1.83;;;;;;;6.67;68.25;98770.88;6204241;23;20025;-84
2023/10/18 07:13:12;;;;;;;4.93;2.10;;;;;;;6.64;68.33;98719.84;6214730;23;20104;-85
2023/10/18 07:15:38;;;;;;;4.68;2.10;;;;;;;7.03;67.04;98767.44;6227946;23;20020;-82
2023/10/18 07:18:09;;;;;;;4.28;2.00;;;;;;;6.92;66.84;98775.00;6223573;23;20020;-84
2023/10/18 07:20:36;;;;;;;3.95;2.03;;;;;;;6.70;67.63;98747.72;6196594;23;20104;-85
2023/10/18 07:23:02;;;;;;;5.27;2.10;;;;;;;6.93;67.46;98773.09;6198438;23;20545;-84
2023/10/18 07:25:28;;;;;;;8.13;2.30;;;;;;;6.85;67.28;98741.97;6195742;23;20048;-81
2023/10/18 07:27:55;;;;;;;13.95;3.00;;;;;;;6.90;66.95;98770.97;6193596;23;20031;-84
2023/10/18 07:30:36;;;;;;;6.80;2.88;;;;;;;6.95;66.79;98771.66;6220269;23;20060;-83
2023/10/18 07:33:09;;;;;;;6.97;3.03;;;;;;;6.96;67.07;98767.06;6195713;23;20016;-85
2023/10/18 07:35:39;;;;;;;5.43;2.53;;;;;;;7.00;67.20;98762.63;6202294;23;20590;-84
2023/10/18 07:38:09;;;;;;;8.10;2.65;;;;;;;7.07;66.26;98769.25;6152158;23;20557;-85
2023/10/18 07:40:43;;;;;;;8.40;2.95;;;;;;;6.95;66.53;98755.34;6194536;23;20078;-88
2023/10/18 07:43:12;;;;;;;6.07;2.75;;;;;;;7.03;67.05;98770.16;6146951;23;20008;-86
2023/10/18 07:45:46;;;;;;;5.80;2.50;;;;;;;6.95;65.97;98774.38;6192993;23;20024;-85
2023/10/18 07:48:16;;;;;;;3.47;2.10;;;;;;;6.96;66.40;98776.00;6223716;23;20026;-85
2023/10/18 07:50:50;;;;;;;6.60;2.65;;;;;;;6.85;65.77;98754.75;6220303;23;20063;-84
2023/10/18 07:53:20;;;;;;;8.25;2.22;;;;;;;6.80;65.30;98733.94;6193533;23;20020;-82
2023/10/18 07:55:56;;;;;;;3.45;2.08;;;;;;;6.91;64.84;98769.88;6194841;23;20024;-81
2023/10/18 07:58:26;;;;;;;6.88;2.42;;;;;;;6.93;65.09;98767.66;6171708;23;20025;-86
2023/10/18 08:03:30;;;;;;;5.07;2.22;;;;;;;6.61;64.94;98716.94;6200640;23;20021;-85
2023/10/18 08:06:06;;;;;;;10.38;2.97;;;;;;;7.18;65.96;98790.78;6220674;23;20016;-83
2023/10/18 08:08:35;;;;;;;11.15;3.35;;;;;;;7.07;65.42;98763.81;6197771;23;20043;-83
2023/10/18 08:11:11;;;;;;;8.23;2.95;;;;;;;7.42;65.62;98801.44;6221436;23;20500;-83
2023/10/18 08:13:47;;;;;;;10.23;3.70;;;;;;;7.44;65.26;98788.34;6217770;23;20020;-87
2023/10/18 08:16:19;;;;;;;3.63;2.25;;;;;;;7.35;63.95;98768.41;6134554;23;20085;-84
2023/10/18 08:18:57;;;;;;;2.83;1.95;;;;;;;7.15;62.93;98775.06;6131543;23;20087;-83
2023/10/18 08:21:26;;;;;;;4.00;2.00;;;;;;;7.37;63.73;98796.09;6106761;23;20017;-82
2023/10/18 08:23:56;;;;;;;3.15;1.90;;;;;;;7.38;63.47;98795.00;6156900;23;20029;-86
2023/10/18 08:26:26;;;;;;;4.80;2.08;;;;;;;7.29;65.19;98775.88;6130836;23;20026;-86
2023/10/18 08:28:55;;;;;;;3.08;1.75;;;;;;;7.50;63.02;98800.72;6158087;23;20017;-87
2023/10/18 08:31:38;;;;;;;16.42;2.88;;;;;;;7.29;63.19;98767.72;6160067;23;20132;-84
2023/10/18 08:34:06;;;;;;;3.65;2.00;;;;;;;7.12;62.71;98757.50;6134311;23;20018;-86
2023/10/18 08:36:39;;;;;;;6.97;2.65;;;;;;;7.02;62.79;98755.78;6108804;23;20029;-85
2023/10/18 08:39:08;;;;;;;3.83;1.80;;;;;;;7.13;63.13;98805.28;6132525;23;20021;-83
2023/10/18 08:41:37;;;;;;;3.78;1.65;;;;;;;7.04;63.52;98804.38;6129375;23;20056;-83
2023/10/18 08:44:19;;;;;;;5.47;2.17;;;;;;;7.12;64.51;98795.53;6132192;23;20098;-82
2023/10/18 08:47:04;;;;;;;8.63;2.67;;;;;;;7.24;64.09;98795.00;6129794;23;20049;-84
2023/10/18 08:49:33;;;;;;;5.40;2.28;;;;;;;7.22;63.52;98798.03;6132375;23;20024;-83
2023/10/18 08:52:06;;;;;;;3.40;1.92;;;;;;;7.13;64.13;98771.88;6138087;23;20044;-84
2023/10/18 08:54:33;;;;;;;3.97;2.03;;;;;;;7.06;63.98;98755.97;6211705;23;20019;-86
2023/10/18 08:57:06;;;;;;;3.38;2.22;;;;;;;7.12;63.82;98749.34;6224149;23;20004;-86
2023/10/18 08:59:56;;;;;;;4.38;2.50;;;;;;;7.50;63.78;98796.06;6197537;23;20020;-87
2023/10/18 09:02:41;;;;;;;9.48;2.83;;;;;;;7.22;63.00;98760.00;6160763;23;20017;-83
2023/10/18 09:05:11;;;;;;;7.88;2.70;;;;;;;7.28;62.78;98790.56;6227584;23;20016;-86
2023/10/18 09:07:45;;;;;;;5.72;2.33;;;;;;;7.11;62.87;98798.53;6180316;23;20034;-87
2023/10/18 09:16:04;;;;;;;3.30;2.00;;;;;;;6.88;62.84;98765.03;6232956;23;20013;-89
2023/10/18 09:18:42;;;;;;;4.70;2.20;;;;;;;6.81;63.57;98755.38;6221820;23;20020;-89
2023/10/18 09:21:17;;;;;;;3.40;1.88;;;;;;;7.14;63.18;98795.22;6201345;23;20007;-88
2023/10/18 09:23:47;;;;;;;5.07;2.70;;;;;;;7.16;64.15;98782.94;6179539;23;20088;-88
2023/10/18 09:26:28;;;;;;;3.83;2.00;;;;;;;6.97;64.21;98774.09;6204012;23;20027;-88
2023/10/18 09:28:59;;;;;;;6.65;2.47;;;;;;;7.16;64.90;98790.31;6240422;23;20008;-89
2023/10/18 09:32:02;;;;;;;7.88;2.22;;;;;;;6.81;64.31;98757.28;6236625;23;20044;-89
2023/10/18 09:35:10;;;;;;;9.52;2.78;;;;;;;7.06;65.00;98799.47;6134218;23;20072;-89
2023/10/18 09:37:38;;;;;;;7.53;2.30;;;;;;;6.44;65.38;98712.91;6226980;23;20022;-86
2023/10/18 09:40:37;;;;;;;6.63;3.05;;;;;;;6.99;66.14;98797.16;6195951;23;20465;-87
2023/10/18 09:43:05;;;;;;;13.13;3.45;;;;;;;7.13;66.63;98794.41;6231606;23;20068;-87
2023/10/18 09:45:39;;;;;;;7.20;2.75;;;;;;;7.18;66.22;98788.88;6182362;23;20036;-85
2023/10/18 09:48:16;;;;;;;7.35;2.63;;;;;;;6.78;65.51;98736.94;6231852;23;20024;-90
2023/10/18 09:50:44;;;;;;;10.15;3.00;;;;;;;6.83;65.82;98719.75;6209188;23;20054;-91
2023/10/18 09:53:21;;;;;;;6.75;2.63;;;;;;;7.28;65.98;98785.13;6237098;23;20043;-85
2023/10/18 09:55:52;;;;;;;6.78;2.38;;;;;;;7.33;65.56;98787.75;6230297;23;20070;-82
2023/10/18 09:58:33;;;;;;;7.22;2.80;;;;;;;7.15;65.42;98743.28;6208913;23;20092;-88
2023/10/18 10:04:09;;;;;;;9.68;3.83;;;;;;;6.93;64.24;98711.41;6233317;23;20020;-86
2023/10/18 10:06:45;;;;;;;7.97;3.85;;;;;;;7.57;65.00;98775.81;6213515;23;20035;-87
2023/10/18 10:09:19;;;;;;;6.32;2.67;;;;;;;7.31;65.07;98719.28;6209076;23;20059;-90
2023/10/18 10:12:00;;;;;;;6.72;2.65;;;;;;;7.59;64.61;98747.22;6156621;23;20021;-86
2023/10/18 10:14:38;;;;;;;6.28;2.90;;;;;;;7.60;64.17;98743.38;6174539;23;20008;-89
2023/10/18 10:17:15;;;;;;;2.60;2.10;;;;;;;7.85;63.38;98784.72;6207283;23;20013;-89
2023/10/18 10:22:41;;;;;;;6.88;3.00;;;;;;;7.56;63.46;98766.88;6205347;23;20021;-89
2023/10/18 10:25:19;;;;;;;4.88;2.40;;;;;;;7.80;63.42;98780.19;6206799;23;20032;-85
2023/10/18 10:27:59;;;;;;;5.53;2.33;;;;;;;7.82;63.52;98788.06;6131588;23;20025;-93
2023/10/18 10:31:44;;;;;;;4.43;2.50;;;;;;;7.86;63.78;98778.97;6185760;23;20032;-90
2023/10/18 10:44:06;;;;;;;6.18;2.65;;;;;;;7.87;63.19;98779.75;6203214;23;20082;-90
2023/10/18 10:48:04;;;;;;;4.60;2.90;;;;;;;7.86;62.90;98786.31;6178577;23;20019;-90
2023/10/18 10:51:16;;;;;;;3.53;2.20;;;;;;;7.84;63.45;98780.38;6178504;23;20043;-89
2023/10/18 10:54:21;;;;;;;18.90;2.58;;;;;;;7.54;63.49;98733.72;6184306;23;20019;-92
2023/10/18 10:56:56;;;;;;;6.13;3.10;;;;;;;7.40;63.07;98722.09;6120904;23;20030;-91
2023/10/18 10:59:36;;;;;;;7.72;2.75;;;;;;;7.02;63.90;98651.72;6097708;23;19994;-93
2023/10/18 11:05:39;;;;;;;5.57;2.00;;;;;;;7.66;64.00;98736.72;6060009;23;20019;-89
2023/10/18 11:11:29;;;;;;;4.70;2.58;;;;;;;8.06;63.53;98755.09;6225310;23;20029;-88
2023/10/18 11:14:07;;;;;;;5.90;2.55;;;;;;;7.68;63.31;98720.91;6181854;23;20040;-91
2023/10/18 11:22:11;;;;;;;7.63;2.60;;;;;;;7.84;64.09;98704.97;6195910;22;20021;-88
2023/10/18 11:24:45;;;;;;;6.43;2.80;;;;;;;7.99;63.37;98733.75;6208980;23;20035;-89
2023/10/18 11:27:14;;;;;;;5.03;2.85;;;;;;;7.92;63.47;98736.91;6174804;23;20627;-89
2023/10/18 11:32:33;;;;;;;11.43;2.38;;;;;;;7.86;64.27;98735.41;6229448;23;20076;-86
2023/10/18 11:41:44;;;;;;;5.18;2.80;;;;;;;7.99;64.40;98728.31;6203933;23;20051;-89
2023/10/18 11:44:16;;;;;;;7.55;2.90;;;;;;;7.99;64.04;98717.44;6157927;23;20021;-88
2023/10/18 11:47:00;;;;;;;5.95;2.53;;;;;;;8.08;63.66;98741.97;6154402;23;20020;-88
2023/10/18 11:50:01;;;;;;;4.30;2.45;;;;;;;8.19;63.93;98768.63;6188163;23;20027;-90
2023/10/18 11:52:42;;;;;;;6.85;2.60;;;;;;;7.87;63.88;98728.84;6207094;23;20025;-86
2023/10/18 11:55:09;;;;;;;5.18;2.67;;;;;;;8.35;65.38;98766.34;6201977;23;20016;-86
2023/10/18 11:58:09;;;;;;;3.78;2.67;;;;;;;8.43;65.49;98762.06;6151865;23;20048;-86
2023/10/18 12:00:38;;;;;;;3.35;2.30;;;;;;;8.37;64.70;98776.91;6152370;23;20016;-87
2023/10/18 12:03:58;;;;;;;9.02;2.80;;;;;;;8.20;65.87;98725.88;6202481;23;20441;-87
2023/10/18 12:06:49;;;;;;;4.18;2.80;;;;;;;8.40;66.02;98766.22;6199930;23;20020;-86
2023/10/18 12:09:31;;;;;;;7.13;2.85;;;;;;;8.08;66.08;98734.63;6204149;23;20046;-89
2023/10/18 12:12:53;;;;;;;5.15;3.00;;;;;;;7.82;66.46;98731.72;6227422;23;20032;-90
2023/10/18 12:16:02;;;;;;;5.32;2.55;;;;;;;8.04;67.73;98769.00;6128207;23;20060;-86
2023/10/18 12:18:33;;;;;;;3.38;2.20;;;;;;;7.60;68.11;98690.91;6154389;23;20040;-88
2023/10/18 12:21:29;;;;;;;4.30;2.70;;;;;;;8.20;69.11;98767.50;6124543;23;20221;-87
2023/10/18 12:24:22;;;;;;;4.82;2.50;;;;;;;7.51;68.34;98655.47;6109060;23;20018;-87
2023/10/18 12:27:38;;;;;;;4.55;2.40;;;;;;;8.30;68.79;98763.72;6118754;23;20415;-86
2023/10/18 12:30:09;;;;;;;5.65;2.28;;;;;;;7.74;69.25;98678.81;6116455;23;20029;-85
2023/10/18 12:32:57;;;;;;;3.17;2.15;;;;;;;8.15;68.62;98758.69;6117522;23;20032;-88
2023/10/18 12:35:34;;;;;;;3.05;2.05;;;;;;;8.02;69.67;98757.63;6146067;23;20017;-87
2023/10/18 12:38:43;;;;;;;3.85;2.47;;;;;;;7.97;70.62;98763.19;6127417;23;20073;-88
2023/10/18 12:43:52;;;;;;;3.97;2.40;;;;;;;7.65;71.04;98699.75;6128364;23;20017;-85
2023/10/18 12:47:09;;;;;;;5.68;2.72;;;;;;;8.03;71.91;98764.69;6175370;23;20043;-85
2023/10/18 12:51:30;;;;;;;5.80;2.80;;;;;;;8.00;71.73;98757.94;6212242;23;20041;-86
2023/10/18 12:57:20;;;;;;;4.28;2.38;;;;;;;7.73;72.73;98720.75;6115744;23;20017;-87
2023/10/18 13:00:16;;;;;;;6.80;2.63;;;;;;;8.06;72.50;98761.34;6165520;23;20027;-86
2023/10/18 13:07:09;;;;;;;6.28;3.20;;;;;;;7.84;72.86;98731.41;6162750;23;20049;-87
2023/10/18 13:10:59;;;;;;;4.45;2.20;;;;;;;8.08;72.79;98763.72;6139538;23;20025;-86
2023/10/18 13:17:18;;;;;;;8.52;2.70;;;;;;;7.73;72.35;98719.97;6165478;23;20013;-87
2023/10/18 13:20:15;;;;;;;7.68;3.40;;;;;;;7.53;73.19;98692.13;6165820;23;20045;-87
2023/10/18 13:23:46;;;;;;;4.28;2.42;;;;;;;7.86;73.06;98767.28;6146950;23;20002;-87
2023/10/18 13:27:00;;;;;;;3.95;2.20;;;;;;;7.90;72.93;98771.78;6104604;23;20060;-88
2023/10/18 13:34:07;;;;;;;13.27;2.72;;;;;;;7.95;73.97;98760.00;6080702;23;20109;-87
2023/10/18 13:37:04;;;;;;;24.10;11.65;;;;;;;7.94;73.82;98767.31;6134674;23;20017;-90
2023/10/18 13:43:28;;;;;;;17.27;9.55;;;;;;;7.92;73.37;98755.97;6055754;23;20021;-87
2023/10/18 13:46:29;;;;;;;50.50;25.35;;;;;;;7.80;73.60;98738.56;6009168;23;20037;-87
2023/10/18 13:49:39;;;;;;;23.13;12.25;;;;;;;8.12;73.65;98768.28;6120385;23;20039;-86
2023/10/18 13:52:07;;;;;;;23.55;11.57;;;;;;;7.72;73.85;98708.28;6204793;23;20099;-86
2023/10/18 13:54:46;;;;;;;17.27;7.57;;;;;;;7.82;73.57;98728.19;6149271;23;20012;-90
2023/10/18 14:05:21;;;;;;;12.98;5.97;;;;;;;7.92;74.72;98766.03;6107042;23;20024;-87
2023/10/18 14:08:43;;;;;;;60.50;31.75;;;;;;;7.82;75.20;98758.13;6102306;23;20077;-87
2023/10/18 14:11:15;;;;;;;48.42;22.33;;;;;;;7.39;75.68;98693.28;6016178;23;20028;-87
2023/10/18 14:18:16;;;;;;;39.67;22.95;;;;;;;7.72;77.14;98751.81;6201753;23;20039;-88
2023/10/18 14:21:29;;;;;;;40.28;23.65;;;;;;;7.75;77.36;98758.56;6060011;23;20018;-87
2023/10/18 14:24:56;;;;;;;31.08;20.27;;;;;;;7.75;77.83;98748.47;6104089;23;20005;-88
2023/10/18 14:27:50;;;;;;;24.48;16.30;;;;;;;7.72;78.12;98749.09;6099447;23;20101;-86
2023/10/18 14:38:46;;;;;;;9.07;6.10;;;;;;;7.69;78.08;98748.91;6141462;23;20028;-88
2023/10/18 14:42:21;;;;;;;14.32;8.18;;;;;;;7.72;78.64;98759.16;6220651;23;20024;-89
2023/10/18 14:45:00;;;;;;;11.98;6.28;;;;;;;7.00;78.78;98656.66;6195743;23;20027;-88
2023/10/18 14:47:32;;;;;;;25.95;13.93;;;;;;;7.75;78.63;98759.34;6183146;23;20025;-88
2023/10/18 14:59:37;;;;;;;13.45;8.05;;;;;;;6.88;79.43;98638.13;6231241;22;20005;-90
2023/10/18 15:06:17;;;;;;;15.38;8.10;;;;;;;7.09;79.21;98640.44;6223211;23;20013;-89
2023/10/18 15:08:49;;;;;;;12.25;6.50;;;;;;;7.33;78.89;98687.16;6179951;23;20020;-92
2023/10/18 15:17:24;;;;;;;9.15;6.28;;;;;;;7.02;79.20;98614.47;6231709;23;20120;-91
2023/10/18 15:23:44;;;;;;;8.43;5.28;;;;;;;7.85;79.09;98749.34;6232143;23;20028;-90
2023/10/18 15:50:21;;;;;;;7.43;5.20;;;;;;;7.82;79.08;98745.31;6205212;23;20086;-87
2023/10/18 15:53:33;;;;;;;10.77;5.13;;;;;;;7.74;79.31;98746.03;6173688;23;20024;-89
2023/10/18 15:56:31;;;;;;;10.43;5.65;;;;;;;7.72;79.59;98746.38;6093269;23;20081;-88
2023/10/18 15:59:26;;;;;;;10.27;6.13;;;;;;;7.73;79.70;98750.69;6099284;23;20029;-87
2023/10/18 16:01:53;;;;;;;9.60;6.03;;;;;;;7.34;80.04;98679.81;6115553;23;20017;-90
2023/10/18 16:04:26;;;;;;;;;;;;;;;7.79;79.84;98745.13;6111385;23;20044;-88
2023/10/18 16:10:34;;;;;;;12.48;7.35;;;;;;;7.28;80.20;98677.22;6058892;23;20034;-92
2023/10/18 16:13:01;;;;;;;15.95;7.85;;;;;;;7.24;80.24;98669.97;6078675;23;20019;-89
2023/10/18 16:18:57;;;;;;;13.80;7.45;;;;;;;7.13;81.09;98665.88;6078092;23;19917;-86
2023/10/18 16:21:24;;;;;;;12.73;7.93;;;;;;;7.40;81.25;98700.34;6066159;23;20044;-86
2023/10/18 16:24:07;;;;;;;14.23;8.48;;;;;;;7.47;81.10;98719.75;6141655;23;20026;-86
2023/10/18 16:26:50;;;;;;;14.27;8.45;;;;;;;7.63;81.46;98740.03;6117095;23;20093;-90
2023/10/18 16:30:05;;;;;;;16.05;8.45;;;;;;;7.62;81.25;98730.28;6153705;23;20032;-90
2023/10/18 16:32:35;;;;;;;14.45;8.02;;;;;;;7.10;81.36;98652.91;6172235;23;20021;-87
2023/10/18 16:35:03;;;;;;;14.00;7.85;;;;;;;7.09;81.49;98646.66;6122547;23;20029;-87
2023/10/18 16:37:30;;;;;;;16.23;8.88;;;;;;;7.34;81.98;98688.75;6197012;23;20013;-88
2023/10/18 16:40:21;;;;;;;;;;;;;;;7.59;82.29;98732.81;6141969;23;20107;-85
2023/10/18 16:43:05;;;;;;;16.13;8.02;;;;;;;7.64;82.38;98738.91;6169757;23;19995;-89
2023/10/18 16:45:44;;;;;;;13.98;7.90;;;;;;;7.05;82.37;98643.75;6193138;23;20024;-92
2023/10/18 16:48:16;;;;;;;12.65;7.97;;;;;;;7.15;82.46;98653.59;6121415;23;20028;-88
2023/10/18 16:50:42;;;;;;;12.98;8.40;;;;;;;7.21;82.12;98652.34;6170777;23;20024;-88
2023/10/18 16:53:09;;;;;;;14.80;8.05;;;;;;;7.50;82.42;98700.91;6175579;23;20083;-88
2023/10/18 16:56:14;;;;;;;15.93;9.30;;;;;;;7.76;82.50;98731.03;6198310;23;20022;-88
2023/10/18 16:59:06;;;;;;;15.65;9.38;;;;;;;7.69;82.91;98727.94;6186764;23;20461;-87
2023/10/18 17:01:33;;;;;;;15.48;9.88;;;;;;;7.66;83.04;98725.03;6225261;23;20030;-86
2023/10/18 17:04:51;;;;;;;15.70;10.70;;;;;;;7.19;82.96;98624.69;6229433;23;20039;-86
2023/10/18 17:07:21;;;;;;;21.23;10.98;;;;;;;7.34;82.74;98650.69;6105861;23;20161;-89
2023/10/18 17:09:55;;;;;;;16.88;10.75;;;;;;;7.59;82.88;98692.81;6079747;23;20641;-90
2023/10/18 17:12:36;;;;;;;20.42;10.32;;;;;;;7.84;82.88;98732.19;6031996;23;20022;-87
2023/10/18 17:15:05;;;;;;;17.58;10.32;;;;;;;7.81;83.07;98719.22;6097103;23;20045;-88
2023/10/18 17:17:32;;;;;;;17.98;10.18;;;;;;;7.33;83.10;98648.31;6077726;23;20022;-87
2023/10/18 17:23:57;;;;;;;74.45;29.23;;;;;;;7.67;83.79;98711.09;6101460;23;20374;-91
2023/10/18 17:26:23;;;;;;;;;;;;;;;7.73;83.86;98730.84;6173384;23;20040;-88
2023/10/18 17:28:49;;;;;;;48.28;23.40;;;;;;;7.72;84.05;98726.53;6196409;23;19922;-83
2023/10/18 17:31:40;;;;;;;19.25;10.15;;;;;;;7.70;84.02;98729.53;6218320;23;20021;-85
2023/10/18 17:34:18;;;;;;;18.05;11.13;;;;;;;7.69;84.40;98725.22;6221352;23;20639;-85
2023/10/18 17:36:45;;;;;;;16.35;10.05;;;;;;;7.68;84.67;98726.34;6199477;23;20050;-86
2023/10/18 17:39:33;;;;;;;14.52;9.00;;;;;;;7.12;84.51;98618.03;6169025;23;20059;-86
2023/10/18 17:42:22;;;;;;;17.15;8.90;;;;;;;7.69;84.87;98716.25;6178863;23;20000;-89
2023/10/18 17:44:55;;;;;;;14.90;8.88;;;;;;;7.59;84.93;98697.47;6197835;23;20020;-86
2023/10/18 17:47:26;;;;;;;16.02;8.80;;;;;;;7.21;84.69;98629.81;6170979;23;20017;-87
2023/10/18 17:50:09;;;;;;;15.10;8.52;;;;;;;7.74;84.71;98705.22;6194951;23;20020;-87
2023/10/18 17:52:57;;;;;;;14.57;7.63;;;;;;;7.40;84.64;98652.19;6171175;23;20021;-86
2023/10/18 17:55:32;;;;;;;12.05;7.78;;;;;;;7.02;84.50;98602.81;6171447;23;20048;-86
2023/10/18 17:58:41;;;;;;;18.25;8.32;;;;;;;7.67;84.63;98705.66;6195052;23;20017;-87
2023/10/18 18:01:34;;;;;;;;;;;;;;;;;;;;;
2023/10/18 18:04:04;;;;;;;16.50;7.85;;;;;;;7.44;85.21;98676.84;6171304;23;20024;-88
2023/10/18 18:06:52;;;;;;;14.23;7.90;;;;;;;7.35;85.18;98673.25;6144268;23;20013;-87
2023/10/18 18:09:45;;;;;;;16.92;7.07;;;;;;;7.53;85.35;98696.75;6195951;23;20017;-86
2023/10/18 18:12:23;;;;;;;13.23;7.13;;;;;;;6.98;85.19;98620.81;6173304;23;20517;-86
2023/10/18 18:14:52;;;;;;;;;;;;;;;7.52;85.12;98708.75;6164530;23;20024;-87
2023/10/18 18:17:22;;;;;;;13.38;6.82;;;;;;;7.01;84.75;98634.59;6089751;23;19948;-87
2023/10/18 18:20:06;;;;;;;11.77;7.30;;;;;;;7.03;84.48;98645.97;6135960;23;20017;-88
